createdAt,value
2023-03-12T10:35:26.231Z,27.95
2023-03-12T10:38:02.025Z,22.60
2023-03-12T10:40:34.334Z,24.30
2023-03-12T10:43:02.203Z,28.58
2023-03-12T10:45:51.279Z,30.65
2023-03-12T10:48:24.050Z,25.55
2023-03-12T10:51:08.497Z,32.47
2023-03-12T10:53:35.704Z,28.90
2023-03-12T10:56:08.113Z,31.58
2023-03-12T10:59:05.947Z,20.85
2023-03-12T11:01:36.015Z,33.72
2023-03-12T11:04:17.515Z,32.13
2023-03-12T11:07:05.008Z,30.20
2023-03-12T11:09:32.548Z,32.85
2023-03-12T11:11:59.969Z,34.03
2023-03-12T11:14:29.855Z,28.45
2023-03-12T11:16:57.768Z,30.97
2023-03-12T11:19:33.400Z,24.30
2023-03-12T11:22:03.641Z,28.33
2023-03-12T11:27:08.177Z,28.67
2023-03-12T11:29:41.094Z,27.58
2023-03-12T11:32:20.564Z,29.23
2023-03-12T11:34:49.760Z,28.52
2023-03-12T11:37:48.168Z,32.33
2023-03-12T11:40:20.470Z,27.80
2023-03-12T11:42:50.789Z,30.55
2023-03-12T11:45:37.523Z,31.92
2023-03-12T11:48:30.733Z,27.95
2023-03-12T11:51:10.724Z,30.77
2023-03-12T11:53:47.088Z,28.75
2023-03-12T11:56:53.750Z,30.80
2023-03-12T11:59:45.114Z,29.33
2023-03-12T12:02:30.894Z,25.38
2023-03-12T12:05:29.359Z,29.70
2023-03-12T12:08:11.911Z,28.75
2023-03-12T12:10:50.016Z,23.60
2023-03-12T12:13:41.160Z,22.75
2023-03-12T12:16:22.284Z,27.48
2023-03-12T12:19:04.627Z,28.52
2023-03-12T12:21:41.602Z,24.88
2023-03-12T12:24:18.059Z,30.20
2023-03-12T12:27:06.809Z,27.35
2023-03-12T12:29:52.908Z,21.63
2023-03-12T12:32:30.317Z,32.20
2023-03-12T12:35:19.871Z,27.20
2023-03-12T12:38:08.900Z,27.15
2023-03-12T12:40:39.117Z,25.00
2023-03-12T12:45:41.175Z,22.45
2023-03-12T12:48:19.418Z,23.75
2023-03-12T12:50:47.853Z,20.27
2023-03-12T12:53:23.175Z,19.98
2023-03-12T12:56:18.853Z,18.90
2023-03-12T12:59:08.664Z,24.30
2023-03-12T13:01:36.729Z,22.30
2023-03-12T13:04:16.128Z,26.38
2023-03-12T13:07:16.693Z,22.13
2023-03-12T13:09:46.196Z,24.55
2023-03-12T13:12:25.249Z,29.45
2023-03-12T13:14:55.276Z,26.17
2023-03-12T13:17:35.327Z,22.20
2023-03-12T13:20:15.960Z,24.42
2023-03-12T13:23:01.455Z,18.10
2023-03-12T13:25:58.549Z,22.60
2023-03-12T13:28:25.762Z,21.30
2023-03-12T13:30:54.163Z,20.38
2023-03-12T13:33:39.698Z,26.75
2023-03-12T13:36:28.807Z,27.50
2023-03-12T13:38:58.783Z,22.27
2023-03-12T13:41:54.920Z,19.80
2023-03-12T13:44:37.406Z,27.38
2023-03-12T13:47:24.581Z,23.27
2023-03-12T13:50:08.597Z,25.10
2023-03-12T13:52:52.284Z,22.88
2023-03-12T13:55:24.949Z,22.63
2023-03-12T13:58:15.901Z,21.17
2023-03-12T14:03:26.750Z,22.50
2023-03-12T14:06:10.681Z,19.70
2023-03-12T14:08:47.143Z,26.73
2023-03-12T14:11:44.410Z,20.67
2023-03-12T14:14:26.826Z,22.95
2023-03-12T14:16:58.661Z,22.23
2023-03-12T14:19:28.307Z,17.35
2023-03-12T14:21:57.723Z,17.38
2023-03-12T14:24:32.550Z,17.75
2023-03-12T14:27:02.472Z,23.83
2023-03-12T14:29:37.454Z,23.58
2023-03-12T14:32:13.236Z,21.48
2023-03-12T14:34:45.394Z,21.20
2023-03-12T14:37:29.466Z,20.20
2023-03-12T14:40:09.014Z,18.17
2023-03-12T14:42:36.594Z,20.55
2023-03-12T14:45:35.000Z,20.25
2023-03-12T14:48:02.573Z,16.45
2023-03-12T14:50:38.196Z,17.35
2023-03-12T14:53:32.063Z,15.98
2023-03-12T14:56:15.643Z,15.48
2023-03-12T14:58:46.328Z,19.83
2023-03-12T15:01:26.444Z,16.95
2023-03-12T15:03:55.987Z,20.40
2023-03-12T15:06:33.821Z,16.25
2023-03-12T15:09:04.433Z,14.68
2023-03-12T15:11:34.128Z,18.48
2023-03-12T15:14:13.126Z,20.95
2023-03-12T15:16:40.922Z,20.40
2023-03-12T15:19:12.679Z,17.00
2023-03-12T15:21:40.440Z,16.50
2023-03-12T15:24:13.300Z,19.77
2023-03-12T15:26:41.593Z,17.63
2023-03-12T15:29:14.621Z,18.27
2023-03-12T15:31:44.709Z,20.17
2023-03-12T15:34:13.546Z,15.55
2023-03-12T15:36:48.784Z,20.45
2023-03-12T15:39:28.374Z,17.95
2023-03-12T15:41:56.993Z,12.35
2023-03-12T15:44:27.000Z,19.83
2023-03-12T15:47:08.546Z,15.45
2023-03-12T15:49:37.163Z,16.65
2023-03-12T15:52:26.438Z,15.40
2023-03-12T15:55:11.845Z,14.00
2023-03-12T15:57:49.998Z,17.10
2023-03-12T16:00:20.353Z,14.88
2023-03-12T16:05:17.087Z,16.38
2023-03-12T16:07:44.343Z,18.00
2023-03-12T16:10:15.224Z,18.77
2023-03-12T16:12:43.685Z,14.02
2023-03-12T16:15:21.447Z,16.63
2023-03-12T16:17:48.992Z,16.15
2023-03-12T16:20:17.802Z,14.93
2023-03-12T16:22:45.161Z,15.15
2023-03-12T16:25:13.220Z,13.98
2023-03-12T16:27:57.930Z,16.13
2023-03-12T16:30:29.108Z,17.35
2023-03-12T16:32:58.332Z,17.25
2023-03-12T16:35:27.939Z,13.07
2023-03-12T16:37:55.771Z,17.30
2023-03-12T16:40:32.828Z,15.55
2023-03-12T16:43:03.486Z,17.25
2023-03-12T16:45:32.044Z,20.35
2023-03-12T16:48:01.485Z,19.48
2023-03-12T16:50:29.202Z,20.75
2023-03-12T16:52:56.650Z,19.25
2023-03-12T16:55:27.570Z,22.05
2023-03-12T16:58:00.216Z,20.50
2023-03-12T17:00:30.301Z,22.88
2023-03-12T17:02:59.071Z,19.95
2023-03-12T17:05:28.229Z,19.52
2023-03-12T17:07:55.849Z,20.85
2023-03-12T17:10:24.037Z,25.08
2023-03-12T17:12:51.714Z,19.77
2023-03-12T17:15:22.298Z,20.95
2023-03-12T17:17:50.088Z,23.35
2023-03-12T17:20:19.618Z,20.38
2023-03-12T17:22:46.901Z,20.45
2023-03-12T17:25:23.270Z,26.48
2023-03-12T17:27:51.437Z,25.45
2023-03-12T17:30:19.208Z,23.20
2023-03-12T17:32:46.513Z,23.52
2023-03-12T17:35:14.506Z,27.13
2023-03-12T17:37:41.791Z,32.65
2023-03-12T17:40:10.346Z,29.00
2023-03-12T17:42:38.714Z,28.88
2023-03-12T17:45:07.229Z,25.95
2023-03-12T17:47:35.544Z,30.83
2023-03-12T17:50:04.654Z,30.40
2023-03-12T17:52:32.358Z,32.40
2023-03-12T17:55:00.500Z,26.52
2023-03-12T17:57:28.116Z,27.77
2023-03-12T17:59:55.455Z,28.33
2023-03-12T18:02:22.752Z,26.58
2023-03-12T18:04:50.617Z,28.42
2023-03-12T18:07:18.050Z,28.67
2023-03-12T18:09:45.866Z,27.73
2023-03-12T18:12:14.216Z,30.42
2023-03-12T18:14:41.481Z,30.95
2023-03-12T18:17:08.901Z,29.65
2023-03-12T18:19:36.212Z,26.73
2023-03-12T18:22:03.975Z,28.30
2023-03-12T18:24:31.230Z,29.20
2023-03-12T18:26:59.440Z,31.38
2023-03-12T18:29:26.857Z,30.70
2023-03-12T18:31:54.209Z,37.65
2023-03-12T18:34:23.465Z,28.88
2023-03-12T18:36:51.034Z,31.33
2023-03-12T18:39:18.825Z,29.77
2023-03-12T18:41:46.045Z,38.35
2023-03-12T18:44:13.515Z,29.98
2023-03-12T18:46:40.855Z,31.85
2023-03-12T18:49:09.228Z,30.77
2023-03-12T18:51:36.511Z,31.60
2023-03-12T18:54:04.185Z,36.35
2023-03-12T18:56:31.531Z,34.05
2023-03-12T18:58:58.845Z,30.45
2023-03-12T19:01:26.487Z,31.17
2023-03-12T19:03:53.808Z,34.17
2023-03-12T19:06:21.221Z,30.75
2023-03-12T19:08:48.472Z,30.65
2023-03-12T19:11:16.306Z,30.73
2023-03-12T19:13:43.798Z,25.30
2023-03-12T19:16:12.426Z,26.27
2023-03-12T19:18:39.963Z,28.40
2023-03-12T19:21:07.840Z,27.15
2023-03-12T19:23:35.712Z,29.27
2023-03-12T19:26:03.894Z,22.08
2023-03-12T19:28:31.423Z,26.70
2023-03-12T19:31:00.498Z,29.05
2023-03-12T19:33:28.606Z,27.38
2023-03-12T19:35:56.440Z,21.67
2023-03-12T19:38:23.710Z,29.48
2023-03-12T19:40:55.778Z,24.30
2023-03-12T19:43:24.050Z,21.95
2023-03-12T19:45:53.008Z,26.35
2023-03-12T19:48:20.337Z,23.63
2023-03-12T19:50:47.925Z,28.40
2023-03-12T19:53:15.338Z,22.83
2023-03-12T19:55:42.903Z,24.85
2023-03-12T19:58:10.186Z,22.75
2023-03-12T20:00:37.710Z,21.80
2023-03-12T20:03:05.143Z,18.92
2023-03-12T20:05:32.512Z,21.98
2023-03-12T20:07:59.891Z,17.80
2023-03-12T20:10:29.259Z,20.48
2023-03-12T20:12:56.567Z,22.10
2023-03-12T20:15:24.000Z,20.08
2023-03-12T20:17:54.612Z,27.02
2023-03-12T20:20:22.016Z,17.73
2023-03-12T20:22:49.418Z,21.88
2023-03-12T20:25:17.168Z,16.35
2023-03-12T20:27:44.768Z,17.13
2023-03-12T20:30:12.733Z,17.73
2023-03-12T20:32:40.155Z,17.67
2023-03-12T20:35:07.855Z,22.35
2023-03-12T20:37:35.065Z,17.48
2023-03-12T20:40:02.456Z,13.98
2023-03-12T20:42:29.772Z,17.77
2023-03-12T20:44:56.982Z,14.68
2023-03-12T20:47:24.483Z,13.73
2023-03-12T20:49:51.746Z,15.93
2023-03-12T20:52:19.055Z,16.42
2023-03-12T20:54:46.330Z,15.55
2023-03-12T20:57:13.716Z,12.98
2023-03-12T20:59:41.270Z,15.18
2023-03-12T21:02:12.753Z,16.30
2023-03-12T21:04:40.983Z,15.88
2023-03-12T21:07:08.381Z,16.42
2023-03-12T21:09:35.993Z,15.13
2023-03-12T21:12:03.368Z,11.63
2023-03-12T21:14:30.729Z,10.50
2023-03-12T21:16:58.242Z,10.48
2023-03-12T21:19:29.528Z,10.02
2023-03-12T21:21:57.137Z,13.60
2023-03-12T21:24:24.511Z,12.55
2023-03-12T21:26:52.018Z,11.50
2023-03-12T21:29:19.660Z,12.10
2023-03-12T21:31:47.205Z,10.52
2023-03-12T21:34:14.849Z,11.52
2023-03-12T21:36:42.322Z,10.23
2023-03-12T21:39:09.583Z,8.60
2023-03-12T21:41:36.876Z,10.07
2023-03-12T21:44:04.245Z,14.10
2023-03-12T21:46:31.917Z,10.68
2023-03-12T21:48:59.780Z,7.88
2023-03-12T21:51:27.275Z,9.70
2023-03-12T21:53:58.212Z,7.35
2023-03-12T21:56:28.191Z,8.38
2023-03-12T21:58:57.218Z,7.07
2023-03-12T22:01:25.043Z,9.50
2023-03-12T22:03:52.418Z,10.48
2023-03-12T22:06:19.874Z,7.25
2023-03-12T22:08:52.295Z,6.80
2023-03-12T22:11:19.700Z,8.90
2023-03-12T22:13:46.914Z,9.20
2023-03-12T22:16:14.662Z,10.63
2023-03-12T22:18:44.441Z,8.45
2023-03-12T22:21:17.819Z,6.80
2023-03-12T22:23:47.927Z,5.80
2023-03-12T22:26:15.795Z,7.57
2023-03-12T22:28:43.626Z,6.53
2023-03-12T22:31:11.061Z,5.22
2023-03-12T22:33:38.302Z,8.13
2023-03-12T22:36:07.994Z,6.47
2023-03-12T22:38:36.761Z,6.53
2023-03-12T22:41:28.889Z,8.02
2023-03-12T22:43:57.652Z,11.05
2023-03-12T22:46:25.608Z,10.18
2023-03-12T22:48:58.179Z,7.95
2023-03-12T22:51:26.394Z,7.32
2023-03-12T22:53:53.930Z,12.13
2023-03-12T22:56:21.876Z,5.95
2023-03-12T22:58:49.244Z,9.70
2023-03-12T23:01:20.383Z,7.75
2023-03-12T23:03:48.118Z,7.75
2023-03-12T23:06:18.143Z,8.55
2023-03-12T23:11:15.808Z,5.43
2023-03-12T23:13:44.648Z,5.03
2023-03-12T23:16:21.181Z,6.97
2023-03-12T23:18:49.211Z,5.13
2023-03-12T23:21:19.318Z,6.80
2023-03-12T23:23:47.178Z,4.82
2023-03-12T23:26:19.327Z,7.45
2023-03-12T23:28:53.295Z,10.65
2023-03-12T23:31:21.106Z,8.43
2023-03-12T23:33:48.578Z,9.45
2023-03-12T23:36:18.168Z,9.73
2023-03-12T23:38:46.046Z,10.20
2023-03-12T23:41:18.773Z,11.07
2023-03-12T23:43:46.398Z,5.07
2023-03-12T23:46:14.421Z,6.25
2023-03-12T23:48:41.703Z,7.50
2023-03-12T23:51:14.251Z,4.63
2023-03-12T23:53:44.110Z,6.63
2023-03-12T23:56:14.912Z,6.78
2023-03-12T23:58:43.479Z,7.40
